createdAt,value
2023-01-31T00:00:26.603Z,49.99
2023-01-31T00:02:53.335Z,50.05
2023-01-31T00:05:20.718Z,50.18
2023-01-31T00:07:48.119Z,50.23
2023-01-31T00:10:14.871Z,50.17
2023-01-31T00:12:41.766Z,50.35
2023-01-31T00:15:08.610Z,50.30
2023-01-31T00:17:35.928Z,50.25
2023-01-31T00:20:02.681Z,50.38
2023-01-31T00:22:29.258Z,50.30
2023-01-31T00:24:56.025Z,50.32
2023-01-31T00:27:22.713Z,50.34
2023-01-31T00:29:49.273Z,50.32
2023-01-31T00:32:15.922Z,50.23
2023-01-31T00:34:48.284Z,50.30
2023-01-31T00:37:14.963Z,50.17
2023-01-31T00:39:41.517Z,50.44
2023-01-31T00:42:08.265Z,50.51
2023-01-31T00:44:35.234Z,50.45
2023-01-31T00:47:01.977Z,50.70
2023-01-31T00:49:28.715Z,50.98
2023-01-31T00:51:55.284Z,50.94
2023-01-31T00:54:21.843Z,51.22
2023-01-31T00:56:48.564Z,51.11
2023-01-31T00:59:15.256Z,51.34
2023-01-31T01:01:42.221Z,51.09
2023-01-31T01:04:08.969Z,51.19
2023-01-31T01:06:36.230Z,51.06
2023-01-31T01:09:03.354Z,51.03
2023-01-31T01:11:30.958Z,51.00
2023-01-31T01:13:58.011Z,51.16
2023-01-31T01:16:29.307Z,51.15
2023-01-31T01:18:56.335Z,51.17
2023-01-31T01:21:23.876Z,51.10
2023-01-31T01:23:50.733Z,51.15
2023-01-31T01:26:22.497Z,51.08
2023-01-31T01:28:49.407Z,51.10
2023-01-31T01:31:19.003Z,51.19
2023-01-31T01:33:46.369Z,51.40
2023-01-31T01:36:13.415Z,51.30
2023-01-31T01:38:42.831Z,51.50
2023-01-31T01:41:09.951Z,51.83
2023-01-31T01:44:06.159Z,51.81
2023-01-31T01:46:42.677Z,51.90
2023-01-31T01:49:22.917Z,52.00
2023-01-31T01:51:49.585Z,52.22
2023-01-31T01:54:17.522Z,52.47
2023-01-31T01:56:45.272Z,52.40
2023-01-31T01:59:15.485Z,52.53
2023-01-31T02:01:42.134Z,52.45
2023-01-31T02:04:10.370Z,52.27
2023-01-31T02:06:37.059Z,52.31
2023-01-31T02:09:03.720Z,52.38
2023-01-31T02:11:30.934Z,52.59
2023-01-31T02:14:05.653Z,52.61
2023-01-31T02:16:32.372Z,52.70
2023-01-31T02:18:59.051Z,52.87
2023-01-31T02:21:44.678Z,52.92
2023-01-31T02:24:17.317Z,52.98
2023-01-31T02:26:49.751Z,53.26
2023-01-31T02:29:34.767Z,53.24
2023-01-31T02:32:31.106Z,53.20
2023-01-31T02:35:07.463Z,53.41
2023-01-31T02:37:34.149Z,53.50
2023-01-31T02:40:02.483Z,53.33
2023-01-31T02:42:38.277Z,53.60
2023-01-31T02:45:07.987Z,53.75
2023-01-31T02:47:53.390Z,53.94
2023-01-31T02:50:26.118Z,53.85
2023-01-31T02:52:55.650Z,53.84
2023-01-31T02:55:45.288Z,53.91
2023-01-31T02:58:12.568Z,53.83
2023-01-31T03:00:40.069Z,53.95
2023-01-31T03:03:07.675Z,53.71
2023-01-31T03:05:34.403Z,53.81
2023-01-31T03:08:01.316Z,53.57
2023-01-31T03:10:27.950Z,53.47
2023-01-31T03:12:54.490Z,53.50
2023-01-31T03:15:21.854Z,53.55
2023-01-31T03:17:59.445Z,53.96
2023-01-31T03:20:32.665Z,53.65
2023-01-31T03:23:00.408Z,53.58
2023-01-31T03:25:27.882Z,53.58
2023-01-31T03:27:58.289Z,53.63
2023-01-31T03:30:31.023Z,53.61
2023-01-31T03:33:18.237Z,53.59
2023-01-31T03:35:46.684Z,53.63
2023-01-31T03:38:22.794Z,53.49
2023-01-31T03:41:00.219Z,53.65
2023-01-31T03:43:40.487Z,53.74
2023-01-31T03:46:11.838Z,53.78
2023-01-31T03:48:39.511Z,54.13
2023-01-31T03:51:07.480Z,54.17
2023-01-31T03:53:34.057Z,54.42
2023-01-31T03:56:09.851Z,54.50
2023-01-31T03:58:37.979Z,54.81
2023-01-31T04:01:05.502Z,54.82
2023-01-31T04:03:42.526Z,55.01
2023-01-31T04:06:09.332Z,54.93
2023-01-31T04:08:36.211Z,54.75
2023-01-31T04:11:06.669Z,54.79
2023-01-31T04:13:33.313Z,54.84
2023-01-31T04:15:59.970Z,54.97
2023-01-31T04:18:26.630Z,54.85
2023-01-31T04:20:53.317Z,54.85
2023-01-31T04:23:20.020Z,54.75
2023-01-31T04:25:46.813Z,54.84
2023-01-31T04:28:13.676Z,54.76
2023-01-31T04:30:40.312Z,54.67
2023-01-31T04:33:06.941Z,54.67
2023-01-31T04:35:35.125Z,54.71
2023-01-31T04:38:01.719Z,54.71
2023-01-31T04:40:28.282Z,54.67
2023-01-31T04:42:54.988Z,54.80
2023-01-31T04:45:21.972Z,54.89
2023-01-31T04:47:48.777Z,54.96
2023-01-31T04:50:15.664Z,55.10
2023-01-31T04:52:42.253Z,55.47
2023-01-31T04:55:09.263Z,55.53
2023-01-31T04:57:36.343Z,55.45
2023-01-31T05:00:02.983Z,55.56
2023-01-31T05:02:30.694Z,55.20
2023-01-31T05:04:57.421Z,55.36
2023-01-31T05:07:24.016Z,55.09
2023-01-31T05:09:50.678Z,55.06
2023-01-31T05:12:17.541Z,54.94
2023-01-31T05:14:44.205Z,55.02
2023-01-31T05:17:11.020Z,54.70
2023-01-31T05:19:37.729Z,54.76
2023-01-31T05:22:04.398Z,54.61
2023-01-31T05:24:31.633Z,54.71
2023-01-31T05:26:59.109Z,54.62
2023-01-31T05:29:27.147Z,54.60
2023-01-31T05:31:54.465Z,54.69
2023-01-31T05:34:21.206Z,54.49
2023-01-31T05:36:47.999Z,54.61
2023-01-31T05:39:14.815Z,54.72
2023-01-31T05:41:41.617Z,54.84
2023-01-31T05:44:08.283Z,54.90
2023-01-31T05:46:35.044Z,54.82
2023-01-31T05:49:02.178Z,54.86
2023-01-31T05:57:53.783Z,54.49
2023-01-31T06:00:20.479Z,54.74
2023-01-31T06:02:48.296Z,54.60
2023-01-31T06:05:15.064Z,54.63
2023-01-31T06:07:41.765Z,54.66
2023-01-31T06:10:09.827Z,54.66
2023-01-31T06:12:36.701Z,54.56
2023-01-31T06:15:03.564Z,54.43
2023-01-31T06:17:30.884Z,54.50
2023-01-31T06:19:58.071Z,54.50
2023-01-31T06:22:24.677Z,54.81
2023-01-31T06:24:51.345Z,55.09
2023-01-31T06:27:18.019Z,55.30
2023-01-31T06:29:44.598Z,55.00
2023-01-31T06:32:11.240Z,55.27
2023-01-31T06:34:38.022Z,55.21
2023-01-31T06:37:04.573Z,55.16
2023-01-31T06:39:31.697Z,55.04
2023-01-31T06:41:58.400Z,55.15
2023-01-31T06:44:26.568Z,55.15
2023-01-31T06:46:54.104Z,55.41
2023-01-31T06:49:20.816Z,55.46
2023-01-31T06:51:47.455Z,56.22
2023-01-31T06:54:14.108Z,56.52
2023-01-31T06:56:40.764Z,56.81
2023-01-31T06:59:07.388Z,56.86
2023-01-31T07:01:34.000Z,57.17
2023-01-31T07:04:00.660Z,56.98
2023-01-31T07:06:27.294Z,56.76
2023-01-31T07:08:53.977Z,56.66
2023-01-31T07:11:20.614Z,56.47
2023-01-31T07:13:48.011Z,56.45
2023-01-31T07:16:16.965Z,56.17
2023-01-31T07:18:43.674Z,56.62
2023-01-31T07:21:11.026Z,56.50
2023-01-31T07:23:37.593Z,56.55
2023-01-31T07:26:05.012Z,56.63
2023-01-31T07:28:31.891Z,56.71
2023-01-31T07:31:06.010Z,56.66
2023-01-31T07:33:33.484Z,56.45
2023-01-31T07:36:01.652Z,56.58
2023-01-31T07:38:28.426Z,56.26
2023-01-31T07:40:55.176Z,56.42
2023-01-31T07:43:21.834Z,56.08
2023-01-31T07:45:48.770Z,55.91
2023-01-31T07:48:15.480Z,55.96
2023-01-31T07:50:42.161Z,56.06
2023-01-31T07:53:08.787Z,55.87
2023-01-31T07:55:35.356Z,55.87
2023-01-31T07:58:01.923Z,55.86
2023-01-31T08:00:47.222Z,55.80
2023-01-31T08:03:34.246Z,55.69
2023-01-31T08:06:01.733Z,55.97
2023-01-31T08:08:28.285Z,56.29
2023-01-31T08:10:54.854Z,56.55
2023-01-31T08:13:22.599Z,56.73
2023-01-31T08:15:51.337Z,56.83
2023-01-31T08:18:17.896Z,56.59
2023-01-31T08:20:45.035Z,56.45
2023-01-31T08:23:11.766Z,55.95
2023-01-31T08:25:38.325Z,55.28
2023-01-31T08:28:05.047Z,55.00
2023-01-31T08:30:31.768Z,54.93
2023-01-31T08:32:58.473Z,54.70
2023-01-31T08:35:29.288Z,55.06
2023-01-31T08:38:06.987Z,55.05
2023-01-31T08:40:41.028Z,55.38
2023-01-31T08:43:08.498Z,55.95
2023-01-31T08:45:35.489Z,56.40
2023-01-31T08:48:02.260Z,55.66
2023-01-31T08:50:29.465Z,54.26
2023-01-31T08:52:56.335Z,53.20
2023-01-31T08:55:23.309Z,53.08
2023-01-31T08:57:59.367Z,51.15
2023-01-31T09:00:26.713Z,50.30
2023-01-31T09:02:53.734Z,50.92
2023-01-31T09:05:20.625Z,51.49
2023-01-31T09:07:47.596Z,50.66
2023-01-31T09:10:14.200Z,49.48
2023-01-31T09:12:40.841Z,48.78
2023-01-31T09:15:07.755Z,48.09
2023-01-31T09:17:34.315Z,47.07
2023-01-31T09:20:06.578Z,46.74
2023-01-31T09:22:34.602Z,47.19
2023-01-31T09:25:02.754Z,47.20
2023-01-31T09:27:29.773Z,47.12
2023-01-31T09:29:56.496Z,47.10
2023-01-31T09:32:23.166Z,47.13
2023-01-31T09:34:49.845Z,47.73
2023-01-31T09:37:16.646Z,48.48
2023-01-31T09:39:43.369Z,49.38
2023-01-31T09:42:19.185Z,48.87
2023-01-31T09:44:46.180Z,49.69
2023-01-31T09:47:22.608Z,50.12
2023-01-31T09:49:50.337Z,51.13
2023-01-31T09:52:17.006Z,51.36
2023-01-31T09:54:43.875Z,51.64
2023-01-31T09:57:14.234Z,51.04
2023-01-31T09:59:52.531Z,50.56
2023-01-31T10:02:28.611Z,48.47
2023-01-31T10:05:05.739Z,47.93
2023-01-31T10:07:39.765Z,47.44
2023-01-31T10:10:36.027Z,46.84
2023-01-31T10:13:34.415Z,45.88
2023-01-31T10:16:02.974Z,45.59
2023-01-31T10:18:30.892Z,45.98
2023-01-31T10:20:58.829Z,46.64
2023-01-31T10:23:45.524Z,47.53
2023-01-31T10:26:16.693Z,47.82
2023-01-31T10:28:43.874Z,47.37
2023-01-31T10:31:29.211Z,47.34
2023-01-31T10:33:57.382Z,46.54
2023-01-31T10:36:29.134Z,46.52
2023-01-31T10:39:00.675Z,44.18
2023-01-31T10:41:34.469Z,41.64
2023-01-31T10:44:02.123Z,40.29
2023-01-31T10:46:28.929Z,40.58
2023-01-31T10:48:56.719Z,41.17
2023-01-31T10:51:36.013Z,40.94
2023-01-31T10:54:02.566Z,42.27
2023-01-31T10:56:31.598Z,43.10
2023-01-31T10:58:59.103Z,43.13
2023-01-31T11:01:25.732Z,42.47
2023-01-31T11:03:53.173Z,42.61
2023-01-31T11:06:20.018Z,42.98
2023-01-31T11:08:47.715Z,42.89
2023-01-31T11:11:21.199Z,41.29
2023-01-31T11:14:00.908Z,41.07
2023-01-31T11:16:31.327Z,40.36
2023-01-31T11:18:58.347Z,40.10
2023-01-31T11:21:31.817Z,39.35
2023-01-31T11:24:14.090Z,38.25
2023-01-31T11:26:51.806Z,39.14
2023-01-31T11:29:19.381Z,39.27
2023-01-31T11:31:47.807Z,39.29
2023-01-31T11:36:45.784Z,38.67
2023-01-31T11:39:21.843Z,36.71
2023-01-31T11:41:48.538Z,37.52
2023-01-31T11:44:16.020Z,37.99
2023-01-31T11:46:44.227Z,38.56
2023-01-31T11:49:14.601Z,37.21
2023-01-31T11:51:41.291Z,36.01
2023-01-31T11:54:07.964Z,36.85
2023-01-31T11:56:35.456Z,35.44
2023-01-31T11:59:10.914Z,35.96
2023-01-31T12:01:44.343Z,36.89
2023-01-31T12:04:14.340Z,37.18
2023-01-31T12:06:41.171Z,37.53
2023-01-31T12:09:20.957Z,36.90
2023-01-31T12:12:00.858Z,35.61
2023-01-31T12:14:38.465Z,35.94
2023-01-31T12:17:05.093Z,35.97
2023-01-31T12:19:47.097Z,35.67
2023-01-31T12:22:25.414Z,36.06
2023-01-31T12:25:02.294Z,36.19
2023-01-31T12:27:32.000Z,36.12
2023-01-31T12:30:09.545Z,36.29
2023-01-31T12:32:55.102Z,36.44
2023-01-31T12:35:28.026Z,35.40
2023-01-31T12:38:01.359Z,35.32
2023-01-31T12:40:40.201Z,35.32
2023-01-31T12:43:23.062Z,35.40
2023-01-31T12:45:49.774Z,35.05
2023-01-31T12:48:19.610Z,34.80
2023-01-31T12:50:52.164Z,34.28
2023-01-31T12:53:21.388Z,34.07
2023-01-31T12:55:55.322Z,34.18
2023-01-31T12:58:21.890Z,33.69
2023-01-31T13:00:48.656Z,33.69
2023-01-31T13:03:21.697Z,33.96
2023-01-31T13:05:58.438Z,33.10
2023-01-31T13:08:26.102Z,33.56
2023-01-31T13:11:09.711Z,33.30
2023-01-31T13:13:38.282Z,32.65
2023-01-31T13:16:11.154Z,32.38
2023-01-31T13:18:37.779Z,32.46
2023-01-31T13:21:05.245Z,31.71
2023-01-31T13:23:33.626Z,31.81
2023-01-31T13:26:21.377Z,31.85
2023-01-31T13:28:58.441Z,31.50
2023-01-31T13:31:26.494Z,30.69
2023-01-31T13:34:16.397Z,31.21
2023-01-31T13:36:43.285Z,31.09
2023-01-31T13:39:18.131Z,30.67
2023-01-31T13:41:44.906Z,30.47
2023-01-31T13:44:12.984Z,30.46
2023-01-31T13:46:42.601Z,30.52
2023-01-31T13:49:17.809Z,30.79
2023-01-31T13:51:46.076Z,30.94
2023-01-31T13:54:42.234Z,31.14
2023-01-31T13:57:17.379Z,31.31
2023-01-31T13:59:44.029Z,31.52
2023-01-31T14:02:17.584Z,31.76
2023-01-31T14:04:47.300Z,31.93
2023-01-31T14:07:14.726Z,31.82
2023-01-31T14:09:44.492Z,32.13
2023-01-31T14:12:11.221Z,32.16
2023-01-31T14:14:42.696Z,32.25
2023-01-31T14:17:13.124Z,32.08
2023-01-31T14:19:42.824Z,32.26
2023-01-31T14:22:18.489Z,32.58
2023-01-31T14:24:53.423Z,32.72
2023-01-31T14:27:20.975Z,32.94
2023-01-31T14:30:08.323Z,32.91
2023-01-31T14:32:47.959Z,32.91
2023-01-31T14:35:14.616Z,32.90
2023-01-31T14:37:41.525Z,32.98
2023-01-31T14:40:22.804Z,33.36
2023-01-31T14:42:52.790Z,33.41
2023-01-31T14:45:24.104Z,33.46
2023-01-31T14:47:50.682Z,34.08
2023-01-31T14:50:20.708Z,34.39
2023-01-31T14:52:50.572Z,34.56
2023-01-31T14:55:35.777Z,35.18
2023-01-31T14:58:02.687Z,35.58
2023-01-31T15:00:30.493Z,36.02
2023-01-31T15:03:01.326Z,36.25
2023-01-31T15:05:31.286Z,36.31
2023-01-31T15:08:00.934Z,36.69
2023-01-31T15:10:46.159Z,36.64
2023-01-31T15:13:48.297Z,36.86
2023-01-31T15:16:27.657Z,37.41
2023-01-31T15:18:57.371Z,37.51
2023-01-31T15:21:28.176Z,37.90
2023-01-31T15:23:54.778Z,38.31
2023-01-31T15:26:21.471Z,38.66
2023-01-31T15:28:48.261Z,38.82
2023-01-31T15:31:22.528Z,38.96
2023-01-31T15:33:53.243Z,38.76
2023-01-31T15:36:33.548Z,39.09
2023-01-31T15:39:04.906Z,39.15
2023-01-31T15:41:44.463Z,39.39
2023-01-31T15:44:12.295Z,39.32
2023-01-31T15:46:38.995Z,39.57
2023-01-31T15:49:25.789Z,39.65
2023-01-31T15:52:08.888Z,39.84
2023-01-31T15:54:35.606Z,39.86
2023-01-31T15:57:02.542Z,40.19
2023-01-31T15:59:29.599Z,40.53
2023-01-31T16:02:03.495Z,40.57
2023-01-31T16:04:30.158Z,40.76
2023-01-31T16:06:56.721Z,40.78
2023-01-31T16:09:24.683Z,40.81
2023-01-31T16:11:51.337Z,41.07
2023-01-31T16:14:17.971Z,41.35
2023-01-31T16:16:44.793Z,41.55
2023-01-31T16:19:13.849Z,42.00
2023-01-31T16:21:43.536Z,42.33
2023-01-31T16:24:17.083Z,42.64
2023-01-31T16:26:52.841Z,42.74
2023-01-31T16:29:19.734Z,43.04
2023-01-31T16:31:51.225Z,43.30
2023-01-31T16:34:21.043Z,43.57
2023-01-31T16:36:50.710Z,43.41
2023-01-31T16:39:29.240Z,43.44
2023-01-31T16:41:58.372Z,43.71
2023-01-31T16:44:26.925Z,43.86
2023-01-31T16:46:53.697Z,44.10
2023-01-31T16:49:38.674Z,44.01
2023-01-31T16:52:16.647Z,43.88
2023-01-31T16:54:50.276Z,43.90
2023-01-31T16:57:24.151Z,44.00
2023-01-31T16:59:51.480Z,44.39
2023-01-31T17:02:22.384Z,44.36
2023-01-31T17:04:50.129Z,44.23
2023-01-31T17:07:21.499Z,44.32
2023-01-31T17:09:48.222Z,44.53
2023-01-31T17:12:17.372Z,44.43
2023-01-31T17:14:43.973Z,44.90
2023-01-31T17:17:16.171Z,44.82
2023-01-31T17:19:48.266Z,44.83
2023-01-31T17:22:15.401Z,44.96
2023-01-31T17:24:42.011Z,45.11
2023-01-31T17:27:10.456Z,45.31
2023-01-31T17:29:37.014Z,45.46
2023-01-31T17:32:03.636Z,45.49
2023-01-31T17:34:30.448Z,45.61
2023-01-31T17:36:57.088Z,45.97
2023-01-31T17:39:23.741Z,45.62
2023-01-31T17:41:50.541Z,45.67
2023-01-31T17:44:17.225Z,45.78
2023-01-31T17:46:44.310Z,45.81
2023-01-31T17:49:11.212Z,45.85
2023-01-31T17:51:38.074Z,45.83
2023-01-31T17:54:04.754Z,45.94
2023-01-31T17:56:31.432Z,45.89
2023-01-31T17:58:57.999Z,45.86
2023-01-31T18:01:24.618Z,45.93
2023-01-31T18:03:51.487Z,45.94
2023-01-31T18:06:19.012Z,45.99
2023-01-31T18:08:45.626Z,46.00
2023-01-31T18:11:14.324Z,46.21
2023-01-31T18:13:41.095Z,46.07
2023-01-31T18:16:15.083Z,46.24
2023-01-31T18:18:42.003Z,46.24
2023-01-31T18:21:09.237Z,46.41
2023-01-31T18:23:35.856Z,46.75
2023-01-31T18:26:03.815Z,47.12
2023-01-31T18:28:30.375Z,47.12
2023-01-31T18:31:01.169Z,47.01
2023-01-31T18:33:27.955Z,47.03
2023-01-31T18:35:58.212Z,46.97
2023-01-31T18:38:25.092Z,46.98
2023-01-31T18:40:51.702Z,47.03
2023-01-31T18:43:18.695Z,46.95
2023-01-31T18:45:45.356Z,47.09
2023-01-31T18:48:11.917Z,46.88
2023-01-31T18:50:38.519Z,47.02
2023-01-31T18:53:05.614Z,47.08
2023-01-31T18:55:32.152Z,47.14
2023-01-31T18:57:58.757Z,47.24
2023-01-31T19:00:25.582Z,47.15
2023-01-31T19:02:52.452Z,47.28
2023-01-31T19:05:19.601Z,47.42
2023-01-31T19:07:46.511Z,47.60
2023-01-31T19:10:13.273Z,47.43
2023-01-31T19:12:39.959Z,47.61
2023-01-31T19:15:07.411Z,47.47
2023-01-31T19:17:34.087Z,47.66
2023-01-31T19:20:00.648Z,47.76
2023-01-31T19:22:28.896Z,47.74
2023-01-31T19:24:56.632Z,47.77
2023-01-31T19:27:23.702Z,47.75
2023-01-31T19:29:50.459Z,47.78
2023-01-31T19:32:17.014Z,47.81
2023-01-31T19:34:43.578Z,48.01
2023-01-31T19:37:10.310Z,48.04
2023-01-31T19:39:37.093Z,47.92
2023-01-31T19:42:04.837Z,48.09
2023-01-31T19:44:32.061Z,48.12
2023-01-31T19:46:58.965Z,48.26
2023-01-31T19:49:25.527Z,48.08
2023-01-31T19:51:52.200Z,48.12
2023-01-31T19:54:19.823Z,48.38
2023-01-31T19:56:46.445Z,48.33
2023-01-31T19:59:13.775Z,48.22
2023-01-31T20:01:40.331Z,48.25
2023-01-31T20:04:06.967Z,48.25
2023-01-31T20:06:35.252Z,48.13
2023-01-31T20:09:04.839Z,48.55
2023-01-31T20:11:31.561Z,48.36
2023-01-31T20:13:58.431Z,48.58
2023-01-31T20:16:25.327Z,48.70
2023-01-31T20:18:53.097Z,48.71
2023-01-31T20:21:21.031Z,48.67
2023-01-31T20:23:48.718Z,48.88
2023-01-31T20:26:15.681Z,48.62
2023-01-31T20:28:43.592Z,48.66
2023-01-31T20:31:10.969Z,48.92
2023-01-31T20:33:37.556Z,48.91
2023-01-31T20:36:04.621Z,49.00
2023-01-31T20:38:31.421Z,49.10
2023-01-31T20:40:57.989Z,48.97
2023-01-31T20:43:25.344Z,49.29
2023-01-31T20:45:52.122Z,48.98
2023-01-31T20:48:18.983Z,49.28
2023-01-31T20:50:53.465Z,49.21
2023-01-31T20:53:20.030Z,49.25
2023-01-31T20:55:47.120Z,49.36
2023-01-31T20:58:13.935Z,49.67
2023-01-31T21:00:40.661Z,50.01
2023-01-31T21:03:07.303Z,50.38
2023-01-31T21:05:38.724Z,50.65
2023-01-31T21:08:05.792Z,50.85
2023-01-31T21:10:32.665Z,50.94
2023-01-31T21:12:59.479Z,51.30
2023-01-31T21:15:27.847Z,51.10
2023-01-31T21:17:55.258Z,51.05
2023-01-31T21:20:22.231Z,50.75
2023-01-31T21:22:49.491Z,50.72
2023-01-31T21:25:16.156Z,50.75
2023-01-31T21:27:43.311Z,50.70
2023-01-31T21:30:10.299Z,50.41
2023-01-31T21:32:36.892Z,50.38
2023-01-31T21:35:03.688Z,50.62
2023-01-31T21:37:30.381Z,50.64
2023-01-31T21:39:56.959Z,50.70
2023-01-31T21:42:23.679Z,50.43
2023-01-31T21:44:50.296Z,50.46
2023-01-31T21:47:16.904Z,50.42
2023-01-31T21:49:43.825Z,50.47
2023-01-31T21:52:10.372Z,50.43
2023-01-31T21:54:37.428Z,50.51
2023-01-31T21:57:04.240Z,50.34
2023-01-31T21:59:32.522Z,50.43
2023-01-31T22:01:59.486Z,50.59
2023-01-31T22:04:26.315Z,50.41
2023-01-31T22:06:53.640Z,50.56
2023-01-31T22:09:20.213Z,50.69
2023-01-31T22:11:48.221Z,50.69
2023-01-31T22:14:15.240Z,51.31
2023-01-31T22:16:42.201Z,51.80
2023-01-31T22:19:10.129Z,52.37
2023-01-31T22:21:36.800Z,52.43
2023-01-31T22:24:03.952Z,52.88
2023-01-31T22:26:31.760Z,52.42
2023-01-31T22:28:59.435Z,52.39
2023-01-31T22:31:26.178Z,52.54
2023-01-31T22:33:52.902Z,52.72
2023-01-31T22:36:19.613Z,52.56
2023-01-31T22:38:46.353Z,52.27
2023-01-31T22:41:13.535Z,52.20
2023-01-31T22:43:40.904Z,52.13
2023-01-31T22:46:08.157Z,51.97
2023-01-31T22:48:35.142Z,52.26
2023-01-31T22:51:03.667Z,52.28
2023-01-31T22:53:31.281Z,52.52
2023-01-31T22:56:05.249Z,52.55
2023-01-31T22:58:32.105Z,52.43
2023-01-31T23:00:58.741Z,52.48
2023-01-31T23:03:25.598Z,52.30
2023-01-31T23:05:52.315Z,52.15
2023-01-31T23:08:19.034Z,52.15
2023-01-31T23:10:45.724Z,52.10
2023-01-31T23:13:12.529Z,51.97
2023-01-31T23:15:39.595Z,52.17
2023-01-31T23:18:06.221Z,52.04
2023-01-31T23:20:33.085Z,52.37
2023-01-31T23:22:59.745Z,52.74
2023-01-31T23:25:26.879Z,53.16
2023-01-31T23:27:55.011Z,53.65
2023-01-31T23:30:22.007Z,54.46
2023-01-31T23:32:48.816Z,54.93
2023-01-31T23:35:15.670Z,55.04
2023-01-31T23:37:42.771Z,55.11
2023-01-31T23:40:09.818Z,54.93
2023-01-31T23:42:36.513Z,54.67
2023-01-31T23:45:03.131Z,54.82
2023-01-31T23:47:29.817Z,54.49
2023-01-31T23:49:56.520Z,54.69
2023-01-31T23:52:23.053Z,54.81
2023-01-31T23:54:49.643Z,54.94
2023-01-31T23:57:16.305Z,54.93
2023-01-31T23:59:42.989Z,54.91
